Latest Weather Observations for Adelaide (Kent Town)

IDS60901

Issued at 11:01 pm CDT Sunday 16 December 2018 (issued every 10 minutes, with the page automatically refreshed every 10 minutes)

About weather observations | Map of Adelaide area stations | Latest observations for Adelaide area | Other Formats
Station Details ID: 023090 Name: KENT TOWN Lat: -34.92 Lon: 138.62 Height: 48.0 m
Data from the previous 72 hours. | See also: Recent months at Adelaide (Kent Town)
Date/Time
CDT
Temp
°C
App
Temp
°C
Dew
Point
°C
Rel
Hum
%
Delta-T
°C
Wind Press
QNH
hPa
Press
MSL
hPa
Rain since
9am
mm
Dir  Spd
km/h
Gust
km/h
Spd
kts
Gust
kts
16/11:00pm 19.2 20.0 15.8 81 2.0 SW 6 11 3 6 1012.1 1011.9 0.2
16/10:30pm 19.3 20.7 16.3 83 1.8 SW 4 9 2 5 1012.0 1011.8 0.2
16/10:00pm 19.4 20.8 16.4 83 1.8 SW 4 11 2 6 1011.7 1011.5 0.2
16/09:30pm 19.4 20.8 16.4 83 1.8 SW 4 11 2 6 1011.4 1011.2 0.2
16/09:00pm 19.3 20.8 16.7 85 1.6 SW 4 9 2 5 1011.1 1010.9 0.2
16/08:30pm 19.2 20.3 16.7 85 1.5 SW 6 13 3 7 1010.8 1010.6 0.2
16/08:00pm 19.6 20.0 16.4 82 1.9 WSW 9 17 5 9 1010.9 1010.7 0.2
16/07:30pm 19.8 19.7 16.1 79 2.2 SW 11 20 6 11 1010.5 1010.3 0.2
16/07:00pm 20.4 19.9 15.9 75 2.7 WSW 13 20 7 11 1010.1 1009.9 0.2
16/06:30pm 20.9 20.8 16.1 74 2.9 WSW 11 15 6 8 1009.6 1009.4 0.2
16/06:00pm 21.2 21.5 15.9 72 3.2 WSW 9 17 5 9 1009.2 1009.0 0.2
16/05:30pm 21.1 20.1 15.6 71 3.3 WSW 15 24 8 13 1009.1 1008.9 0.2
16/05:00pm 21.7 21.6 15.9 69 3.5 WSW 11 20 6 11 1009.1 1008.9 0.2
16/04:30pm 21.9 21.4 15.8 68 3.7 WSW 13 20 7 11 1008.9 1008.7 0.2
16/04:00pm 21.4 20.9 15.9 71 3.3 WSW 13 20 7 11 1009.1 1008.9 0.2
16/03:30pm 20.4 20.3 15.9 75 2.7 WSW 11 17 6 9 1009.1 1008.9 0.2
16/03:00pm 20.0 19.9 16.0 78 2.4 SW 11 20 6 11 1009.3 1009.1 0.2
16/02:30pm 19.9 19.8 15.9 78 2.4 SW 11 17 6 9 1009.4 1009.2 0.0
16/02:00pm 20.2 19.2 15.7 75 2.7 W 15 26 8 14 1009.4 1009.2 0.0
16/01:30pm 20.5 19.7 16.2 76 2.6 W 15 20 8 11 1009.6 1009.4 0.0
16/01:00pm 19.8 18.9 15.8 78 2.4 WSW 15 26 8 14 1009.7 1009.5 0.0
16/12:30pm 19.8 19.0 16.0 79 2.3 WSW 15 20 8 11 1009.7 1009.5 0.0
16/12:00pm 18.7 18.1 15.7 83 1.8 WSW 13 22 7 12 1009.7 1009.5 0.0
16/11:30am 18.7 17.8 15.8 83 1.7 WSW 15 22 8 12 1009.4 1009.2 0.0
16/11:00am 18.8 18.8 16.3 85 1.5 WSW 11 17 6 9 1008.9 1008.7 0.0
16/10:30am 18.1 18.1 16.3 89 1.1 WSW 11 20 6 11 1008.8 1008.6 0.0
16/10:00am 17.5 18.0 16.5 94 0.6 WSW 9 15 5 8 1009.0 1008.8 0.0
16/09:30am 17.5 18.2 16.0 91 0.9 WSW 7 15 4 8 1008.8 1008.6 0.0
16/09:00am 17.4 17.4 16.2 93 0.7 WSW 11 17 6 9 1008.6 1008.4 2.4
16/08:30am 17.4 17.5 16.4 94 0.6 WSW 11 20 6 11 1008.3 1008.1 2.4
16/08:00am 17.3 18.2 16.5 95 0.5 WSW 7 15 4 8 1007.7 1007.5 2.4
16/07:30am 16.9 17.3 16.4 97 0.3 WSW 9 17 5 9 1007.6 1007.4 2.4
16/07:00am 16.9 17.6 16.2 96 0.4 WSW 7 15 4 8 1007.3 1007.1 2.2
16/06:30am 16.9 17.2 16.1 95 0.5 WSW 9 17 5 9 1007.0 1006.8 2.0
16/06:00am 16.8 17.2 16.3 97 0.3 WSW 9 13 5 7 1006.8 1006.6 2.0
16/05:30am 16.8 16.0 16.1 96 0.4 WSW 15 24 8 13 1006.5 1006.3 2.0
16/05:00am 16.9 16.6 16.4 97 0.3 WSW 13 17 7 9 1006.1 1005.9 1.8
16/04:30am 16.9 16.5 16.2 96 0.4 WSW 13 22 7 12 1005.9 1005.7 1.6
16/04:00am 16.9 16.9 16.2 96 0.4 WSW 11 19 6 10 1005.7 1005.5 0.8
16/03:30am 17.0 17.0 16.3 96 0.4 WSW 11 17 6 9 1005.4 1005.2 0.4
16/03:00am 17.1 17.0 16.1 94 0.6 WSW 11 19 6 10 1005.4 1005.2 0.2
16/02:30am 17.1 17.8 16.1 94 0.6 SW 7 17 4 9 1005.5 1005.3 0.2
16/02:00am 17.1 17.5 16.3 95 0.5 WSW 9 17 5 9 1005.7 1005.5 0.0
16/01:30am 17.3 16.9 16.1 93 0.7 WSW 13 20 7 11 1005.9 1005.7 0.0
16/01:00am 17.6 17.9 15.9 90 1.0 WSW 9 15 5 8 1005.7 1005.5 0.0
16/12:30am 18.1 18.2 15.6 85 1.5 WSW 9 19 5 10 1006.0 1005.8 0.0
16/12:00am 18.0 17.7 15.5 85 1.5 WSW 11 15 6 8 1006.1 1005.9 0.0
 
Date/Time
CDT
Temp
°C
App
Temp
°C
Dew
Point
°C
Rel
Hum
%
Delta-T
°C
Wind Press
QNH
hPa
Press
MSL
hPa
Rain since
9am
mm
Dir  Spd
km/h
Gust
km/h
Spd
kts
Gust
kts
15/11:30pm 18.1 18.6 15.6 85 1.5 WSW 7 13 4 7 1005.9 1005.7 0.0
15/11:00pm 18.2 17.9 15.5 84 1.6 W 11 17 6 9 1005.8 1005.6 0.0
15/10:30pm 18.2 18.7 15.5 84 1.6 WSW 7 11 4 6 1005.6 1005.4 0.0
15/10:00pm 18.4 18.9 15.5 83 1.7 SW 7 15 4 8 1005.5 1005.3 0.0
15/09:30pm 18.6 18.7 15.4 81 1.9 WSW 9 17 5 9 1005.3 1005.1 0.0
15/09:00pm 19.0 18.6 15.3 79 2.2 SW 11 24 6 13 1005.2 1005.0 0.0
15/08:30pm 19.7 18.9 15.1 75 2.7 WSW 13 20 7 11 1004.9 1004.7 0.0
15/08:00pm 20.4 19.4 14.6 69 3.4 SW 13 22 7 12 1004.7 1004.5 0.0
15/07:30pm 21.7 20.4 13.6 60 4.7 WSW 13 22 7 12 1004.6 1004.4 0.0
15/07:00pm 22.6 20.8 12.2 51 5.9 WSW 13 24 7 13 1004.4 1004.2 0.0
15/06:30pm 22.8 21.5 13.7 56 5.3 WSW 13 22 7 12 1004.2 1004.0 0.0
15/06:00pm 23.1 22.1 12.2 50 6.2 WSW 9 15 5 8 1003.7 1003.5 0.0
15/05:30pm 23.0 21.4 12.8 52 5.9 WSW 13 19 7 10 1003.5 1003.3 0.0
15/05:00pm 23.8 22.1 11.2 45 7.1 W 11 20 6 11 1003.5 1003.3 0.0
15/04:30pm 24.2 22.5 12.4 47 6.8 WSW 13 19 7 10 1003.7 1003.5 0.0
15/04:00pm 24.9 23.3 11.5 43 7.6 WSW 11 19 6 10 1004.0 1003.8 0.0
15/03:30pm 23.9 22.2 12.4 48 6.6 WSW 13 20 7 11 1004.3 1004.1 0.0
15/03:00pm 25.8 24.9 13.6 47 7.2 WNW 11 20 6 11 1004.5 1004.3 0.0
15/02:30pm 23.6 22.2 13.5 53 5.9 W 13 20 7 11 1004.9 1004.7 0.0
15/02:00pm 23.9 22.6 13.7 53 6.0 WSW 13 20 7 11 1005.2 1005.0 0.0
15/01:30pm 25.0 24.5 13.8 49 6.6 WNW 9 20 5 11 1005.4 1005.2 0.0
15/01:00pm 22.7 21.4 13.8 57 5.2 WSW 13 17 7 9 1005.9 1005.7 0.0
15/12:30pm 23.4 22.7 14.3 56 5.4 W 11 19 6 10 1005.9 1005.7 0.0
15/12:00pm 23.0 22.3 14.4 58 5.1 WNW 11 20 6 11 1006.0 1005.8 0.0
15/11:30am 22.5 21.5 14.6 61 4.7 WNW 13 22 7 12 1006.2 1006.0 0.0
15/11:00am 23.4 22.6 12.8 51 6.1 WNW 9 17 5 9 1006.1 1005.9 0.0
15/10:30am 23.0 22.4 13.4 54 5.6 W 9 15 5 8 1006.3 1006.1 0.0
15/10:00am 21.5 20.9 13.6 60 4.6 W 9 13 5 7 1006.7 1006.5 0.0
15/09:30am 21.4 22.0 14.2 63 4.2 SSW 4 7 2 4 1006.7 1006.5 0.0
15/09:00am 20.0 20.4 13.6 66 3.7 N 4 9 2 5 1006.8 1006.6 0.4
15/08:30am 19.2 19.6 13.8 71 3.1 NNE 4 9 2 5 1006.6 1006.4 0.4
15/08:00am 17.9 18.3 13.7 76 2.4 NE 4 7 2 4 1006.1 1005.9 0.4
15/07:30am 17.5 17.7 14.2 81 1.9 ENE 6 11 3 6 1006.0 1005.8 0.4
15/07:00am 15.6 16.4 13.7 88 1.1 NE 2 7 1 4 1006.0 1005.8 0.4
15/06:30am 14.6 14.5 13.3 92 0.7 E 6 9 3 5 1006.0 1005.8 0.4
15/06:00am 14.1 14.7 13.2 94 0.5 ESE 2 7 1 4 1005.9 1005.7 0.4
15/05:30am 14.1 15.0 13.0 93 0.6 CALM 0 0 0 0 1005.5 1005.3 0.4
15/05:00am 14.4 15.4 13.1 92 0.7 CALM 0 0 0 0 1005.4 1005.2 0.4
15/04:30am 14.8 15.5 13.4 91 0.8 ESE 2 7 1 4 1005.2 1005.0 0.4
15/04:00am 15.4 16.5 13.6 89 1.0 CALM 0 0 0 0 1005.1 1004.9 0.4
15/03:30am 15.8 15.8 13.7 87 1.2 WSW 6 11 3 6 1005.0 1004.8 0.4
15/03:00am 16.0 15.7 13.3 84 1.5 SSW 7 9 4 5 1005.3 1005.1 0.4
15/02:30am 16.0 15.7 13.3 84 1.5 SSW 7 13 4 7 1005.5 1005.3 0.4
15/02:00am 16.2 16.1 13.4 83 1.6 S 6 9 3 5 1006.0 1005.8 0.4
15/01:30am 16.3 16.0 13.3 82 1.7 SSW 7 13 4 7 1005.9 1005.7 0.4
15/01:00am 16.5 15.9 13.5 82 1.7 WSW 9 13 5 7 1006.1 1005.9 0.4
15/12:30am 16.6 16.3 13.2 80 1.9 SE 7 13 4 7 1006.7 1006.5 0.4
15/12:00am 16.6 16.5 13.4 81 1.8 WSW 6 11 3 6 1007.0 1006.8 0.4
 
Date/Time
CDT
Temp
°C
App
Temp
°C
Dew
Point
°C
Rel
Hum
%
Delta-T
°C
Wind Press
QNH
hPa
Press
MSL
hPa
Rain since
9am
mm
Dir  Spd
km/h
Gust
km/h
Spd
kts
Gust
kts
14/11:30pm 16.6 16.7 13.8 83 1.6 W 6 13 3 7 1007.0 1006.8 0.4
14/11:00pm 17.1 16.2 13.6 80 2.0 SSE 11 19 6 10 1007.0 1006.8 0.4
14/10:30pm 17.3 16.0 13.6 79 2.1 SSE 13 26 7 14 1007.3 1007.1 0.4
14/10:00pm 17.5 16.2 13.6 78 2.2 SSE 13 22 7 12 1007.4 1007.2 0.4
14/09:30pm 17.5 16.6 13.8 79 2.1 S 11 19 6 10 1007.2 1007.0 0.4
14/09:00pm 17.4 16.6 14.1 81 1.9 S 11 17 6 9 1006.8 1006.6 0.4
14/08:30pm 17.5 17.2 14.4 82 1.8 SSW 9 15 5 8 1006.7 1006.5 0.4
14/08:00pm 17.4 17.7 15.0 86 1.4 SSW 7 13 4 7 1006.7 1006.5 0.4
14/07:30pm 17.8 16.8 14.5 81 1.9 S 13 26 7 14 1006.4 1006.2 0.4
14/07:00pm 17.7 16.7 14.6 82 1.8 S 13 20 7 11 1005.9 1005.7 0.4
14/06:30pm 18.0 15.5 14.0 77 2.3 SSE 20 39 11 21 1005.7 1005.5 0.4
14/06:00pm 18.2 16.2 13.8 75 2.5 S 17 35 9 19 1005.2 1005.0 0.4
14/05:30pm 18.4 16.9 14.3 77 2.4 S 15 28 8 15 1005.2 1005.0 0.4
14/05:00pm 18.3 17.3 14.5 78 2.2 S 13 28 7 15 1005.0 1004.8 0.4
14/04:30pm 18.6 16.9 14.7 78 2.3 S 17 33 9 18 1004.7 1004.5 0.4
14/04:00pm 19.1 17.9 15.0 77 2.4 S 15 28 8 15 1005.1 1004.9 0.4
14/03:30pm 20.0 19.2 15.1 73 2.9 SSW 13 28 7 15 1004.9 1004.7 0.4
14/03:00pm 20.3 18.6 14.7 70 3.3 S 17 28 9 15 1005.1 1004.9 0.4
14/02:30pm 21.0 19.3 14.7 67 3.7 SSE 17 30 9 16 1004.6 1004.4 0.4
14/02:00pm 19.5 19.7 16.7 84 1.7 SSW 11 19 6 10 1004.8 1004.6 0.4
14/01:30pm 18.7 18.5 15.8 83 1.7 S 11 26 6 14 1005.1 1004.9 0.2
14/01:00pm 19.5 18.5 14.5 73 2.9 SSW 13 26 7 14 1005.1 1004.9 0.2
14/12:30pm 20.1 18.9 13.9 67 3.6 S 13 30 7 16 1004.9 1004.7 0.0
14/12:00pm 19.9 18.6 13.7 67 3.6 SSW 13 28 7 15 1005.1 1004.9 0.0
14/11:30am 18.4 16.8 12.9 70 3.1 S 13 22 7 12 1005.3 1005.1 0.0
14/11:00am 18.6 17.2 12.3 67 3.5 SSE 11 22 6 12 1005.5 1005.3 0.0
14/10:30am 17.8 15.3 12.2 70 3.1 SE 17 32 9 17 1005.3 1005.1 0.0
14/10:00am 19.1 17.4 14.7 75 2.6 SSE 17 37 9 20 1004.8 1004.6 0.0
14/09:30am 17.2 17.0 15.8 91 0.8 SW 11 24 6 13 1004.0 1003.8 0.0
14/09:00am 16.6 16.7 15.4 93 0.7 SW 9 19 5 10 1004.2 1004.0 8.8
14/08:30am 15.2 14.2 14.7 97 0.3 WSW 13 22 7 12 1004.0 1003.8 8.8
14/08:00am 14.8 13.3 14.1 96 0.4 WSW 15 24 8 13 1004.0 1003.8 8.8
14/07:30am 14.7 13.4 13.8 94 0.5 SW 13 28 7 15 1004.0 1003.8 8.6
14/07:00am 14.5 12.7 13.4 93 0.6 SW 15 24 8 13 1003.9 1003.7 8.4
14/06:30am 14.1 13.0 13.2 94 0.5 SW 11 26 6 14 1003.9 1003.7 8.4
14/06:00am 13.8 11.9 12.9 94 0.5 WSW 15 26 8 14 1003.8 1003.6 8.4
14/05:30am 13.6 11.9 12.5 93 0.6 SW 13 28 7 15 1004.2 1004.0 7.6
14/05:00am 13.3 10.8 12.4 94 0.5 SW 17 33 9 18 1004.4 1004.2 7.4
14/04:30am 13.1 10.9 12.2 94 0.5 SW 15 32 8 17 1004.7 1004.5 7.2
14/04:00am 12.9 10.7 12.2 95 0.4 SW 15 24 8 13 1005.0 1004.8 6.6
14/03:30am 12.8 10.5 11.9 94 0.5 SW 15 26 8 14 1005.6 1005.4 6.0
14/03:00am 12.8 10.8 11.5 92 0.7 SW 13 37 7 20 1006.0 1005.8 5.8
14/02:30am 12.7 10.0 11.6 93 0.6 WSW 17 26 9 14 1006.6 1006.4 5.6
14/02:00am 12.6 10.5 11.3 92 0.7 SW 13 28 7 15 1007.4 1007.2 5.2
14/01:30am 12.4 9.9 11.1 92 0.7 SW 15 28 8 15 1007.7 1007.5 5.0
14/01:00am 12.6 8.9 10.3 86 1.2 SW 20 39 11 21 1008.2 1008.0 4.8
14/12:30am 13.4 9.9 8.9 74 2.3 SW 17 35 9 19 1008.5 1008.3 4.8
14/12:00am 13.9 10.1 7.4 65 3.2 SW 17 33 9 18 1008.8 1008.6 4.8
 
Date/Time
CDT
Temp
°C
App
Temp
°C
Dew
Point
°C
Rel
Hum
%
Delta-T
°C
Wind Press
QNH
hPa
Press
MSL
hPa
Rain since
9am
mm
Dir  Spd
km/h
Gust
km/h
Spd
kts
Gust
kts
13/11:30pm 14.1 10.0 6.2 59 3.8 SW 17 33 9 18 1009.3 1009.1 4.8

Latest Capital City Observations: Canberra | Sydney | Melbourne | Brisbane | Adelaide | Perth | Hobart | Darwin

Other Formats:

Comma delimited format used in spreadsheet applications
http://www.bom.gov.au/fwo/IDS60901/IDS60901.94675.axf

JavaScript Object Notation format (JSON) in row-major order
http://www.bom.gov.au/fwo/IDS60901/IDS60901.94675.json